Time;durP1;ratioP1;P1;durP2;ratioP2;P2;SDS_P1;SDS_P2;PMS_P1;PMS_P2;Temp;Humidity;BMP_temperature;BMP_pressure;BME280_temperature;BME280_humidity;BME280_pressure;Samples;Min_cycle;Max_cycle;Signal;HPM_P1;HPM_P2
2023/06/30 00:01:52;;;;;;;;;;;;;;;;;;5032302;28;19936;-67
2023/06/30 00:04:19;;;;;;;;;;;;;;;;;;5032916;28;20011;-67
2023/06/30 00:06:49;;;;;;;;;;;;;;;;;;5032735;28;20298;-67
2023/06/30 00:09:15;;;;;;;;;;;;;;;;;;5033481;28;19929;-66
2023/06/30 00:11:42;;;;;;;;;;;;;;;;;;5033025;28;20466;-67
2023/06/30 00:14:08;;;;;;;;;;;;;;;;;;5032460;28;20008;-66
2023/06/30 00:16:36;;;;;;;;;;;;;;;;;;5032888;28;20286;-67
2023/06/30 00:19:04;;;;;;;;;;;;;;;;;;5032485;28;20350;-66
2023/06/30 00:21:30;;;;;;;;;;;;;;;;;;5032293;28;19925;-67
2023/06/30 00:24:01;;;;;;;;;;;;;;;;;;5032584;28;19925;-67
2023/06/30 00:26:28;;;;;;;;;;;;;;;;;;5032672;28;19980;-67
2023/06/30 00:28:54;;;;;;;;;;;;;;;;;;5032391;28;19932;-67
2023/06/30 00:31:21;;;;;;;;;;;;;;;;;;5032326;28;20016;-67
2023/06/30 00:33:48;;;;;;;;;;;;;;;;;;5031837;28;20426;-67
2023/06/30 00:36:15;;;;;;;;;;;;;;;;;;5032185;28;19931;-67
2023/06/30 00:38:41;;;;;;;;;;;;;;;;;;5032051;28;19936;-67
2023/06/30 00:41:08;;;;;;;;;;;;;;;;;;5031945;28;20007;-67
2023/06/30 00:43:34;;;;;;;;;;;;;;;;;;5031941;28;20290;-67
2023/06/30 00:46:00;;;;;;;;;;;;;;;;;;5032248;28;19925;-66
2023/06/30 00:48:27;;;;;;;;;;;;;;;;;;5032182;28;20404;-67
2023/06/30 00:50:55;;;;;;;;;;;;;;;;;;5031444;28;19935;-67
2023/06/30 00:53:21;;;;;;;;;;;;;;;;;;5032081;28;20298;-67
2023/06/30 00:55:50;;;;;;;;;;;;;;;;;;5030768;28;19932;-67
2023/06/30 00:58:16;;;;;;;;;;;;;;;;;;5031811;28;19933;-66
2023/06/30 01:00:43;;;;;;;;;;;;;;;;;;5031027;28;19929;-67
2023/06/30 01:03:13;;;;;;;;;;;;;;;;;;5031505;28;19935;-67
2023/06/30 01:05:43;;;;;;;;;;;;;;;;;;5031663;28;19925;-67
2023/06/30 01:08:14;;;;;;;;;;;;;;;;;;5031880;28;19925;-67
2023/06/30 01:10:43;;;;;;;;;;;;;;;;;;5031010;28;19925;-67
2023/06/30 01:13:10;;;;;;;;;;;;;;;;;;5031704;28;19929;-67
2023/06/30 01:15:37;;;;;;;;;;;;;;;;;;5031403;28;19925;-67
2023/06/30 01:18:03;;;;;;;;;;;;;;;;;;5031901;28;19925;-67
2023/06/30 01:20:32;;;;;;;;;;;;;;;;;;5031049;28;20441;-67
2023/06/30 01:23:01;;;;;;;;;;;;;;;;;;5031491;28;19925;-67
2023/06/30 01:25:30;;;;;;;;;;;;;;;;;;5031424;28;19947;-67
2023/06/30 01:27:57;;;;;;;;;;;;;;;;;;5030826;28;19931;-67
2023/06/30 01:30:24;;;;;;;;;;;;;;;;;;5030786;28;19991;-66
2023/06/30 01:32:54;;;;;;;;;;;;;;;;;;5030878;28;20020;-67
2023/06/30 01:35:21;;;;;;;;;;;;;;;;;;5012331;28;20339;-67
2023/06/30 01:37:47;;;;;;;;;;;;;;;;;;5011023;28;20398;-66
2023/06/30 01:40:13;;;;;;;;;;;;;;;;;;5011146;28;19932;-66
2023/06/30 01:42:41;;;;;;;;;;;;;;;;;;5010861;28;20388;-67
2023/06/30 01:45:09;;;;;;;;;;;;;;;;;;5011203;28;19932;-67
2023/06/30 01:47:36;;;;;;;;;;;;;;;;;;5011018;28;19941;-67
2023/06/30 01:50:03;;;;;;;;;;;;;;;;;;5011181;28;19929;-67
2023/06/30 01:52:29;;;;;;;;;;;;;;;;;;5010686;28;20008;-67
2023/06/30 01:54:56;;;;;;;;;;;;;;;;;;5011101;28;20327;-67
2023/06/30 01:57:22;;;;;;;;;;;;;;;;;;5010797;28;19931;-67
2023/06/30 01:59:50;;;;;;;;;;;;;;;;;;5010632;28;19926;-67
2023/06/30 02:02:16;;;;;;;;;;;;;;;;;;5011442;28;20294;-67
2023/06/30 02:04:42;;;;;;;;;;;;;;;;;;5010684;28;19936;-67
2023/06/30 02:07:09;;;;;;;;;;;;;;;;;;5011474;28;19977;-67
2023/06/30 02:09:35;;;;;;;;;;;;;;;;;;5010388;28;20108;-67
2023/06/30 02:12:02;;;;;;;;;;;;;;;;;;5010886;28;19930;-67
2023/06/30 02:14:28;;;;;;;;;;;;;;;;;;5010698;28;19929;-67
2023/06/30 02:16:56;;;;;;;;;;;;;;;;;;5011231;28;19929;-67
2023/06/30 02:19:23;;;;;;;;;;;;;;;;;;5010441;28;19932;-67
2023/06/30 02:21:50;;;;;;;;;;;;;;;;;;5010930;28;19932;-67
2023/06/30 02:24:16;;;;;;;;;;;;;;;;;;5010606;28;19925;-67
2023/06/30 02:26:43;;;;;;;;;;;;;;;;;;5010845;28;20017;-67
2023/06/30 02:29:09;;;;;;;;;;;;;;;;;;5010490;28;20024;-67
2023/06/30 02:31:35;;;;;;;;;;;;;;;;;;5010668;28;20386;-67
2023/06/30 02:34:03;;;;;;;;;;;;;;;;;;5010729;28;20008;-67
2023/06/30 02:36:30;;;;;;;;;;;;;;;;;;5010913;28;20288;-67
2023/06/30 02:38:57;;;;;;;;;;;;;;;;;;5010604;28;19932;-67
2023/06/30 02:41:24;;;;;;;;;;;;;;;;;;5010205;28;20362;-67
2023/06/30 02:43:50;;;;;;;;;;;;;;;;;;5010671;28;19941;-67
2023/06/30 02:46:16;;;;;;;;;;;;;;;;;;5010332;28;19925;-67
2023/06/30 02:48:43;;;;;;;;;;;;;;;;;;5010773;28;20268;-67
2023/06/30 02:51:11;;;;;;;;;;;;;;;;;;5010146;28;20020;-67
2023/06/30 02:53:38;;;;;;;;;;;;;;;;;;5010383;28;19925;-67
2023/06/30 02:56:05;;;;;;;;;;;;;;;;;;5010248;28;19926;-67
2023/06/30 02:58:36;;;;;;;;;;;;;;;;;;5010322;28;19932;-67
2023/06/30 03:01:02;;;;;;;;;;;;;;;;;;5009991;28;20394;-67
2023/06/30 03:03:28;;;;;;;;;;;;;;;;;;5010775;28;19925;-67
2023/06/30 03:05:55;;;;;;;;;;;;;;;;;;5010006;28;19932;-67
2023/06/30 03:08:23;;;;;;;;;;;;;;;;;;5010610;28;20001;-67
2023/06/30 03:10:49;;;;;;;;;;;;;;;;;;5010113;28;20016;-67
2023/06/30 03:13:16;;;;;;;;;;;;;;;;;;5010069;28;19932;-67
2023/06/30 03:15:42;;;;;;;;;;;;;;;;;;5010605;28;20028;-67
2023/06/30 03:18:09;;;;;;;;;;;;;;;;;;5010384;28;19929;-67
2023/06/30 03:20:35;;;;;;;;;;;;;;;;;;5013593;28;20300;-67
2023/06/30 03:23:01;;;;;;;;;;;;;;;;;;5013797;28;19937;-67
2023/06/30 03:25:29;;;;;;;;;;;;;;;;;;5014198;28;20012;-67
2023/06/30 03:27:56;;;;;;;;;;;;;;;;;;5013862;28;19925;-67
2023/06/30 03:30:22;;;;;;;;;;;;;;;;;;5014015;28;19932;-67
2023/06/30 03:32:48;;;;;;;;;;;;;;;;;;5013341;28;20036;-67
2023/06/30 03:35:15;;;;;;;;;;;;;;;;;;5013601;28;20359;-67
2023/06/30 03:37:41;;;;;;;;;;;;;;;;;;5013490;28;19926;-67
2023/06/30 03:40:08;;;;;;;;;;;;;;;;;;5013384;28;19992;-68
2023/06/30 03:42:36;;;;;;;;;;;;;;;;;;5013358;28;20380;-67
2023/06/30 03:45:02;;;;;;;;;;;;;;;;;;5014096;28;19932;-67
2023/06/30 03:47:28;;;;;;;;;;;;;;;;;;5013780;28;19925;-67
2023/06/30 03:49:55;;;;;;;;;;;;;;;;;;5012448;28;20433;-67
2023/06/30 03:52:21;;;;;;;;;;;;;;;;;;5013707;28;19925;-67
2023/06/30 03:54:48;;;;;;;;;;;;;;;;;;5013139;28;19926;-68
2023/06/30 03:57:14;;;;;;;;;;;;;;;;;;5013305;28;19929;-68
2023/06/30 03:59:42;;;;;;;;;;;;;;;;;;5012300;28;20012;-67
2023/06/30 04:02:08;;;;;;;;;;;;;;;;;;5013183;28;20411;-67
2023/06/30 04:04:35;;;;;;;;;;;;;;;;;;5012616;28;19929;-68
2023/06/30 04:07:01;;;;;;;;;;;;;;;;;;5013144;28;20012;-67
2023/06/30 04:09:27;;;;;;;;;;;;;;;;;;5012948;28;20300;-67
2023/06/30 04:11:54;;;;;;;;;;;;;;;;;;5013090;28;20016;-67
2023/06/30 04:14:20;;;;;;;;;;;;;;;;;;5012640;28;20024;-67
2023/06/30 04:16:48;;;;;;;;;;;;;;;;;;5012827;28;20382;-67
2023/06/30 04:19:14;;;;;;;;;;;;;;;;;;5012752;28;20449;-67
2023/06/30 04:21:41;;;;;;;;;;;;;;;;;;5012387;28;20299;-67
2023/06/30 04:24:08;;;;;;;;;;;;;;;;;;5012848;28;19988;-67
2023/06/30 04:26:35;;;;;;;;;;;;;;;;;;5012510;28;19929;-67
2023/06/30 04:29:02;;;;;;;;;;;;;;;;;;5012777;28;19932;-67
2023/06/30 04:31:28;;;;;;;;;;;;;;;;;;5011015;28;20368;-67
2023/06/30 04:33:56;;;;;;;;;;;;;;;;;;5012979;28;19925;-67
2023/06/30 04:36:22;;;;;;;;;;;;;;;;;;5012551;28;20116;-67
2023/06/30 04:38:49;;;;;;;;;;;;;;;;;;5012365;28;19936;-67
2023/06/30 04:41:16;;;;;;;;;;;;;;;;;;5011934;28;19971;-66
2023/06/30 04:43:43;;;;;;;;;;;;;;;;;;5012508;28;19931;-67
2023/06/30 04:46:09;;;;;;;;;;;;;;;;;;5011922;28;20080;-66
2023/06/30 04:48:36;;;;;;;;;;;;;;;;;;5012507;28;19925;-67
2023/06/30 04:51:04;;;;;;;;;;;;;;;;;;5011717;28;19933;-67
2023/06/30 04:53:30;;;;;;;;;;;;;;;;;;5012721;28;20275;-67
2023/06/30 04:55:57;;;;;;;;;;;;;;;;;;5012474;28;19925;-67
2023/06/30 04:58:23;;;;;;;;;;;;;;;;;;5011968;28;19968;-67
2023/06/30 05:00:50;;;;;;;;;;;;;;;;;;5011816;28;19929;-67
2023/06/30 05:03:16;;;;;;;;;;;;;;;;;;5011582;28;19926;-67
2023/06/30 05:05:42;;;;;;;;;;;;;;;;;;5012118;28;20439;-66
2023/06/30 05:08:10;;;;;;;;;;;;;;;;;;5011733;28;19936;-67
2023/06/30 05:10:37;;;;;;;;;;;;;;;;;;5011598;28;19948;-66
2023/06/30 05:13:03;;;;;;;;;;;;;;;;;;5011429;28;20399;-67
2023/06/30 05:15:31;;;;;;;;;;;;;;;;;;5011680;28;19936;-67
2023/06/30 05:17:57;;;;;;;;;;;;;;;;;;5011577;28;19933;-66
2023/06/30 05:20:24;;;;;;;;;;;;;;;;;;5011381;28;19932;-67
2023/06/30 05:22:50;;;;;;;;;;;;;;;;;;5011400;28;19925;-67
2023/06/30 05:25:18;;;;;;;;;;;;;;;;;;5011740;28;19998;-66
2023/06/30 05:27:44;;;;;;;;;;;;;;;;;;5010922;28;19925;-66
2023/06/30 05:30:11;;;;;;;;;;;;;;;;;;5011711;28;19969;-67
2023/06/30 05:32:38;;;;;;;;;;;;;;;;;;5017087;28;19925;-67
2023/06/30 05:35:04;;;;;;;;;;;;;;;;;;5030875;28;20387;-67
2023/06/30 05:37:30;;;;;;;;;;;;;;;;;;5031669;28;19925;-67
2023/06/30 05:39:57;;;;;;;;;;;;;;;;;;5030388;28;19925;-67
2023/06/30 05:42:25;;;;;;;;;;;;;;;;;;5031050;28;20351;-66
2023/06/30 05:44:51;;;;;;;;;;;;;;;;;;5031046;28;19925;-67
2023/06/30 05:47:18;;;;;;;;;;;;;;;;;;5031245;28;19932;-67
2023/06/30 05:49:44;;;;;;;;;;;;;;;;;;5030349;28;19947;-67
2023/06/30 05:52:10;;;;;;;;;;;;;;;;;;5031033;28;20016;-66
2023/06/30 05:54:37;;;;;;;;;;;;;;;;;;5030530;28;19932;-67
2023/06/30 05:57:04;;;;;;;;;;;;;;;;;;5030675;28;19929;-67
2023/06/30 05:59:31;;;;;;;;;;;;;;;;;;5030351;28;19932;-66
2023/06/30 06:01:58;;;;;;;;;;;;;;;;;;5030750;28;20307;-67
2023/06/30 06:04:24;;;;;;;;;;;;;;;;;;5030755;28;19932;-66
2023/06/30 06:06:51;;;;;;;;;;;;;;;;;;5030593;28;19925;-67
2023/06/30 06:09:18;;;;;;;;;;;;;;;;;;5030709;28;20021;-67
2023/06/30 06:11:44;;;;;;;;;;;;;;;;;;5029831;28;19936;-67
2023/06/30 06:14:11;;;;;;;;;;;;;;;;;;5030843;28;19925;-66
2023/06/30 06:16:38;;;;;;;;;;;;;;;;;;5030114;28;20479;-66
2023/06/30 06:19:05;;;;;;;;;;;;;;;;;;5030789;28;19925;-67
2023/06/30 06:21:31;;;;;;;;;;;;;;;;;;5026028;28;20371;-66
2023/06/30 06:23:58;;;;;;;;;;;;;;;;;;5029776;28;19925;-67
2023/06/30 06:26:24;;;;;;;;;;;;;;;;;;5019193;28;20272;-66
2023/06/30 06:28:51;;;;;;;;;;;;;;;;;;5028347;28;19925;-66
2023/06/30 06:31:17;;;;;;;;;;;;;;;;;;5030366;28;19999;-66
2023/06/30 06:33:45;;;;;;;;;;;;;;;;;;5029122;28;20478;-66
2023/06/30 06:36:11;;;;;;;;;;;;;;;;;;5029399;28;19925;-66
2023/06/30 06:38:38;;;;;;;;;;;;;;;;;;5025041;28;20004;-67
2023/06/30 06:41:05;;;;;;;;;;;;;;;;;;5020262;28;19932;-67
2023/06/30 06:43:31;;;;;;;;;;;;;;;;;;5030345;28;19933;-67
2023/06/30 06:45:58;;;;;;;;;;;;;;;;;;5029864;28;19925;-67
2023/06/30 06:48:25;;;;;;;;;;;;;;;;;;5020553;28;19929;-67
2023/06/30 06:50:53;;;;;;;;;;;;;;;;;;5029631;28;19932;-66
2023/06/30 06:53:20;;;;;;;;;;;;;;;;;;5030425;28;20298;-67
2023/06/30 06:55:47;;;;;;;;;;;;;;;;;;5032749;28;19929;-67
2023/06/30 06:58:14;;;;;;;;;;;;;;;;;;5033805;28;20017;-67
2023/06/30 07:00:40;;;;;;;;;;;;;;;;;;5032415;28;20032;-67
2023/06/30 07:03:07;;;;;;;;;;;;;;;;;;5033382;28;19929;-67
2023/06/30 07:05:33;;;;;;;;;;;;;;;;;;5053595;28;19959;-67
2023/06/30 07:08:01;;;;;;;;;;;;;;;;;;5053114;28;19928;-67
2023/06/30 07:10:29;;;;;;;;;;;;;;;;;;5052863;28;19931;-67
2023/06/30 07:12:55;;;;;;;;;;;;;;;;;;5053249;28;19925;-67
2023/06/30 07:15:21;;;;;;;;;;;;;;;;;;5046583;28;20015;-67
2023/06/30 07:17:48;;;;;;;;;;;;;;;;;;5032800;28;19979;-67
2023/06/30 07:20:14;;;;;;;;;;;;;;;;;;5030688;28;20001;-67
2023/06/30 07:22:41;;;;;;;;;;;;;;;;;;5048238;28;19931;-67
2023/06/30 07:25:09;;;;;;;;;;;;;;;;;;5045797;28;19929;-67
2023/06/30 07:27:36;;;;;;;;;;;;;;;;;;5030072;28;19925;-66
2023/06/30 07:30:03;;;;;;;;;;;;;;;;;;5031161;28;19925;-67
2023/06/30 07:32:31;;;;;;;;;;;;;;;;;;5031022;28;19925;-67
2023/06/30 07:34:57;;;;;;;;;;;;;;;;;;5032847;28;19925;-67
2023/06/30 07:37:23;;;;;;;;;;;;;;;;;;5033383;28;19925;-67
2023/06/30 07:39:50;;;;;;;;;;;;;;;;;;5030586;28;20015;-67
2023/06/30 07:42:17;;;;;;;;;;;;;;;;;;5030770;28;19943;-67
2023/06/30 07:44:44;;;;;;;;;;;;;;;;;;5014779;28;19925;-67
2023/06/30 07:47:10;;;;;;;;;;;;;;;;;;5026944;28;19925;-73
2023/06/30 07:49:39;;;;;;;;;;;;;;;;;;5019505;28;19933;-72
2023/06/30 07:52:06;;;;;;;;;;;;;;;;;;5032605;28;20012;-72
2023/06/30 07:54:32;;;;;;;;;;;;;;;;;;5032380;28;20286;-72
2023/06/30 07:56:58;;;;;;;;;;;;;;;;;;5033160;28;19932;-72
2023/06/30 07:59:26;;;;;;;;;;;;;;;;;;5030942;28;20012;-73
2023/06/30 08:01:52;;;;;;;;;;;;;;;;;;5028678;28;19951;-72
2023/06/30 08:04:21;;;;;;;;;;;;;;;;;;5031308;28;19936;-72
2023/06/30 08:06:47;;;;;;;;;;;;;;;;;;5032356;28;19961;-72
2023/06/30 08:09:14;;;;;;;;;;;;;;;;;;5030047;28;19932;-72
2023/06/30 08:11:40;;;;;;;;;;;;;;;;;;5030620;28;19925;-73
2023/06/30 08:14:07;;;;;;;;;;;;;;;;;;5029040;28;19948;-74
2023/06/30 08:16:35;;;;;;;;;;;;;;;;;;5026454;28;19940;-74
2023/06/30 08:19:02;;;;;;;;;;;;;;;;;;5025652;28;19931;-74
2023/06/30 08:21:28;;;;;;;;;;;;;;;;;;5032003;28;19932;-73
2023/06/30 08:23:55;;;;;;;;;;;;;;;;;;5030889;28;19925;-74
2023/06/30 08:26:21;;;;;;;;;;;;;;;;;;5032588;28;19925;-73
2023/06/30 08:28:48;;;;;;;;;;;;;;;;;;5031885;28;20401;-74
2023/06/30 08:31:14;;;;;;;;;;;;;;;;;;5032579;28;19929;-74
2023/06/30 08:33:42;;;;;;;;;;;;;;;;;;5047134;28;20043;-74
2023/06/30 08:36:09;;;;;;;;;;;;;;;;;;5052766;28;19929;-74
2023/06/30 08:38:35;;;;;;;;;;;;;;;;;;5051568;28;19936;-74
2023/06/30 08:41:02;;;;;;;;;;;;;;;;;;5051774;28;19925;-74
2023/06/30 08:43:29;;;;;;;;;;;;;;;;;;5052079;28;19925;-74
2023/06/30 08:45:56;;;;;;;;;;;;;;;;;;5052273;28;19935;-74
2023/06/30 08:48:23;;;;;;;;;;;;;;;;;;5052088;28;20045;-74
2023/06/30 08:50:52;;;;;;;;;;;;;;;;;;5051414;28;19925;-74
2023/06/30 08:53:18;;;;;;;;;;;;;;;;;;5044657;28;19925;-74
2023/06/30 08:55:45;;;;;;;;;;;;;;;;;;5032074;28;20108;-73
2023/06/30 08:58:12;;;;;;;;;;;;;;;;;;5031959;28;20411;-74
2023/06/30 09:00:39;;;;;;;;;;;;;;;;;;5031660;28;19955;-74
2023/06/30 09:03:05;;;;;;;;;;;;;;;;;;5029614;28;20012;-74
2023/06/30 09:05:33;;;;;;;;;;;;;;;;;;5032129;28;19971;-74
2023/06/30 09:08:03;;;;;;;;;;;;;;;;;;5031331;28;19925;-74
2023/06/30 09:10:33;;;;;;;;;;;;;;;;;;5031470;28;19931;-74
2023/06/30 09:13:00;;;;;;;;;;;;;;;;;;5031422;28;19929;-74
2023/06/30 09:15:27;;;;;;;;;;;;;;;;;;5031594;28;20023;-74
2023/06/30 09:17:54;;;;;;;;;;;;;;;;;;5031167;28;19925;-74
2023/06/30 09:20:21;;;;;;;;;;;;;;;;;;5031325;28;19925;-74
2023/06/30 09:22:48;;;;;;;;;;;;;;;;;;5031226;28;20387;-72
2023/06/30 09:25:29;;;;;;;;;;;;;;;;;;5031903;28;19931;-72
2023/06/30 09:27:57;;;;;;;;;;;;;;;;;;5031755;28;19932;-72
2023/06/30 09:30:31;;;;;;;;;;;;;;;;;;5031207;28;19931;-72
2023/06/30 09:32:58;;;;;;;;;;;;;;;;;;5031788;28;20114;-74
2023/06/30 09:35:24;;;;;;;;;;;;;;;;;;5031169;28;19932;-73
2023/06/30 09:37:51;;;;;;;;;;;;;;;;;;5031604;28;19933;-74
2023/06/30 09:40:18;;;;;;;;;;;;;;;;;;5049553;28;19930;-74
2023/06/30 09:42:45;;;;;;;;;;;;;;;;;;5051503;28;19925;-74
2023/06/30 09:45:13;;;;;;;;;;;;;;;;;;5050890;28;19925;-74
2023/06/30 09:47:39;;;;;;;;;;;;;;;;;;5051172;28;20430;-74
2023/06/30 09:50:06;;;;;;;;;;;;;;;;;;5049941;28;20023;-74
2023/06/30 09:52:33;;;;;;;;;;;;;;;;;;5051147;28;19925;-75
2023/06/30 09:55:06;;;;;;;;;;;;;;;;;;5050733;28;20355;-74
2023/06/30 09:57:32;;;;;;;;;;;;;;;;;;5051374;28;19924;-74
2023/06/30 10:00:00;;;;;;;;;;;;;;;;;;5050614;28;20639;-74
2023/06/30 10:02:27;;;;;;;;;;;;;;;;;;5038240;28;19925;-74
2023/06/30 10:04:54;;;;;;;;;;;;;;;;;;5030117;28;19933;-74
2023/06/30 10:07:20;;;;;;;;;;;;;;;;;;5030594;28;20268;-74
2023/06/30 10:09:48;;;;;;;;;;;;;;;;;;5030582;28;19947;-74
2023/06/30 10:12:15;;;;;;;;;;;;;;;;;;5030388;28;20302;-74
2023/06/30 10:14:44;;;;;;;;;;;;;;;;;;5030888;28;20399;-73
2023/06/30 10:17:11;;;;;;;;;;;;;;;;;;5030513;28;19926;-73
2023/06/30 10:19:41;;;;;;;;;;;;;;;;;;5030375;28;19936;-74
2023/06/30 10:22:07;;;;;;;;;;;;;;;;;;5030507;28;19931;-74
2023/06/30 10:24:37;;;;;;;;;;;;;;;;;;5030883;28;20078;-74
2023/06/30 10:27:05;;;;;;;;;;;;;;;;;;5030874;28;19932;-74
2023/06/30 10:29:32;;;;;;;;;;;;;;;;;;5032817;28;19975;-74
2023/06/30 10:31:58;;;;;;;;;;;;;;;;;;5028319;28;19925;-74
2023/06/30 10:34:25;;;;;;;;;;;;;;;;;;5014664;28;20403;-74
2023/06/30 10:36:53;;;;;;;;;;;;;;;;;;5030574;28;19925;-74
2023/06/30 10:39:20;;;;;;;;;;;;;;;;;;5033917;28;19929;-74
2023/06/30 10:41:46;;;;;;;;;;;;;;;;;;5034208;28;19975;-74
2023/06/30 10:44:13;;;;;;;;;;;;;;;;;;5034225;28;20397;-74
2023/06/30 10:46:47;;;;;;;;;;;;;;;;;;5034360;28;19933;-74
2023/06/30 10:49:17;;;;;;;;;;;;;;;;;;5034642;28;19925;-74
2023/06/30 10:51:45;;;;;;;;;;;;;;;;;;5034384;28;19925;-74
2023/06/30 10:54:18;;;;;;;;;;;;;;;;;;5034290;28;19925;-74
2023/06/30 10:56:44;;;;;;;;;;;;;;;;;;5034408;28;19932;-74
2023/06/30 10:59:15;;;;;;;;;;;;;;;;;;5034310;28;20012;-74
2023/06/30 11:02:03;;;;;;;;;;;;;;;;;;5033962;28;19955;-74
2023/06/30 11:04:36;;;;;;;;;;;;;;;;;;5034105;28;19929;-74
2023/06/30 11:07:03;;;;;;;;;;;;;;;;;;5034107;28;19931;-74
2023/06/30 11:09:55;;;;;;;;;;;;;;;;;;5033935;28;19936;-74
2023/06/30 11:12:23;;;;;;;;;;;;;;;;;;5034392;28;20004;-74
2023/06/30 11:14:53;;;;;;;;;;;;;;;;;;5034459;28;20303;-73
2023/06/30 11:17:20;;;;;;;;;;;;;;;;;;5033721;28;20283;-74
2023/06/30 11:19:56;;;;;;;;;;;;;;;;;;5033507;28;19945;-74
2023/06/30 11:22:23;;;;;;;;;;;;;;;;;;5033986;28;19925;-74
2023/06/30 11:24:50;;;;;;;;;;;;;;;;;;5034240;28;19925;-74
2023/06/30 11:27:17;;;;;;;;;;;;;;;;;;5033899;28;19976;-74
2023/06/30 11:29:44;;;;;;;;;;;;;;;;;;5033415;28;19932;-74
2023/06/30 11:32:10;;;;;;;;;;;;;;;;;;5033293;28;19936;-73
2023/06/30 11:34:37;;;;;;;;;;;;;;;;;;5037508;28;19928;-73
2023/06/30 11:37:05;;;;;;;;;;;;;;;;;;5053369;28;20386;-73
2023/06/30 11:39:31;;;;;;;;;;;;;;;;;;5052722;28;20027;-73
2023/06/30 11:42:01;;;;;;;;;;;;;;;;;;5052954;28;20397;-73
2023/06/30 11:44:27;;;;;;;;;;;;;;;;;;5035374;28;19957;-74
2023/06/30 11:46:55;;;;;;;;;;;;;;;;;;5033490;28;19925;-74
2023/06/30 11:49:21;;;;;;;;;;;;;;;;;;5033123;28;19940;-74
2023/06/30 11:51:48;;;;;;;;;;;;;;;;;;5033230;28;19932;-74
2023/06/30 11:54:14;;;;;;;;;;;;;;;;;;5035701;28;20016;-74
2023/06/30 11:56:41;;;;;;;;;;;;;;;;;;5053291;28;19932;-73
2023/06/30 11:59:08;;;;;;;;;;;;;;;;;;5052561;28;19979;-73
2023/06/30 12:01:35;;;;;;;;;;;;;;;;;;5052736;28;19957;-74
2023/06/30 12:04:16;;;;;;;;;;;;;;;;;;5044387;28;20434;-74
2023/06/30 12:06:43;;;;;;;;;;;;;;;;;;5032985;28;19925;-74
2023/06/30 12:09:09;;;;;;;;;;;;;;;;;;5032635;28;19929;-74
2023/06/30 12:11:36;;;;;;;;;;;;;;;;;;5032682;28;19941;-74
2023/06/30 12:14:09;;;;;;;;;;;;;;;;;;5032958;28;19925;-74
2023/06/30 12:16:42;;;;;;;;;;;;;;;;;;5032807;28;20304;-73
2023/06/30 12:19:08;;;;;;;;;;;;;;;;;;5032965;28;19925;-74
2023/06/30 12:21:35;;;;;;;;;;;;;;;;;;5032257;28;20397;-74
2023/06/30 12:24:03;;;;;;;;;;;;;;;;;;5032935;28;20012;-73
2023/06/30 12:26:29;;;;;;;;;;;;;;;;;;5044964;28;19931;-73
2023/06/30 12:29:02;;;;;;;;;;;;;;;;;;5052889;28;20382;-74
2023/06/30 12:31:32;;;;;;;;;;;;;;;;;;5051719;28;19972;-74
2023/06/30 12:33:59;;;;;;;;;;;;;;;;;;5050873;28;19925;-74
2023/06/30 12:36:28;;;;;;;;;;;;;;;;;;5052136;28;20275;-74
2023/06/30 12:38:54;;;;;;;;;;;;;;;;;;5052285;28;20264;-73
2023/06/30 12:41:21;;;;;;;;;;;;;;;;;;5051635;28;20019;-74
2023/06/30 12:43:48;;;;;;;;;;;;;;;;;;5052680;28;20298;-74
2023/06/30 12:46:14;;;;;;;;;;;;;;;;;;5052510;28;19924;-74
2023/06/30 12:48:42;;;;;;;;;;;;;;;;;;5052306;28;19968;-74
2023/06/30 12:51:08;;;;;;;;;;;;;;;;;;5040733;28;19925;-73
2023/06/30 12:53:35;;;;;;;;;;;;;;;;;;5031612;28;19950;-73
2023/06/30 12:56:01;;;;;;;;;;;;;;;;;;5032042;28;20020;-73
2023/06/30 12:58:27;;;;;;;;;;;;;;;;;;5032038;28;20003;-73
2023/06/30 13:00:54;;;;;;;;;;;;;;;;;;5031661;28;19925;-73
2023/06/30 13:03:21;;;;;;;;;;;;;;;;;;5031673;28;19925;-73
2023/06/30 13:05:50;;;;;;;;;;;;;;;;;;5031831;28;19931;-73
2023/06/30 13:08:17;;;;;;;;;;;;;;;;;;5030951;28;20024;-73
2023/06/30 13:10:43;;;;;;;;;;;;;;;;;;5031931;28;19925;-73
2023/06/30 13:13:10;;;;;;;;;;;;;;;;;;5032124;28;20283;-74
2023/06/30 13:15:36;;;;;;;;;;;;;;;;;;5031232;28;19926;-73
2023/06/30 13:18:03;;;;;;;;;;;;;;;;;;5029667;28;20008;-73
2023/06/30 13:20:29;;;;;;;;;;;;;;;;;;5031159;28;19931;-73
2023/06/30 13:22:57;;;;;;;;;;;;;;;;;;5031213;28;20486;-73
2023/06/30 13:25:23;;;;;;;;;;;;;;;;;;5031219;28;19925;-73
2023/06/30 13:27:50;;;;;;;;;;;;;;;;;;5031462;28;19925;-73
2023/06/30 13:30:16;;;;;;;;;;;;;;;;;;5031332;28;19969;-73
2023/06/30 13:32:43;;;;;;;;;;;;;;;;;;5031923;28;19929;-73
2023/06/30 13:35:10;;;;;;;;;;;;;;;;;;5031406;28;20055;-73
2023/06/30 13:37:37;;;;;;;;;;;;;;;;;;5034910;28;19928;-73
2023/06/30 13:40:05;;;;;;;;;;;;;;;;;;5050922;28;19931;-73
2023/06/30 13:42:32;;;;;;;;;;;;;;;;;;5050643;28;19975;-73
2023/06/30 13:44:58;;;;;;;;;;;;;;;;;;5033185;28;20023;-74
2023/06/30 13:47:25;;;;;;;;;;;;;;;;;;5030674;28;20059;-73
2023/06/30 13:49:51;;;;;;;;;;;;;;;;;;5030395;28;20019;-73
2023/06/30 13:52:17;;;;;;;;;;;;;;;;;;5030925;28;20020;-73
2023/06/30 13:54:44;;;;;;;;;;;;;;;;;;5031653;28;19929;-73
2023/06/30 13:57:12;;;;;;;;;;;;;;;;;;5031126;28;19925;-72
2023/06/30 13:59:38;;;;;;;;;;;;;;;;;;5030790;28;19932;-73
2023/06/30 14:02:05;;;;;;;;;;;;;;;;;;5030613;28;20437;-73
2023/06/30 14:04:31;;;;;;;;;;;;;;;;;;5030892;28;19936;-73
2023/06/30 14:06:58;;;;;;;;;;;;;;;;;;5030792;28;19925;-72
2023/06/30 14:09:24;;;;;;;;;;;;;;;;;;5046240;28;20441;-73
2023/06/30 14:11:51;;;;;;;;;;;;;;;;;;5049268;28;19925;-73
2023/06/30 14:14:19;;;;;;;;;;;;;;;;;;5050729;28;20351;-73
2023/06/30 14:16:45;;;;;;;;;;;;;;;;;;5050769;28;19931;-73
2023/06/30 14:19:11;;;;;;;;;;;;;;;;;;5050376;28;19971;-73
2023/06/30 14:21:38;;;;;;;;;;;;;;;;;;5050519;28;20297;-72
2023/06/30 14:24:05;;;;;;;;;;;;;;;;;;5031195;28;20268;-73
2023/06/30 14:26:32;;;;;;;;;;;;;;;;;;5030907;28;20043;-73
2023/06/30 14:28:58;;;;;;;;;;;;;;;;;;5030718;28;19925;-73
2023/06/30 14:31:26;;;;;;;;;;;;;;;;;;5030441;28;20192;-72
2023/06/30 14:33:53;;;;;;;;;;;;;;;;;;5030810;28;20457;-72
2023/06/30 14:36:19;;;;;;;;;;;;;;;;;;5030922;28;19987;-72
2023/06/30 14:38:45;;;;;;;;;;;;;;;;;;5030493;28;19926;-72
2023/06/30 14:41:12;;;;;;;;;;;;;;;;;;5029934;28;20027;-73
2023/06/30 14:43:38;;;;;;;;;;;;;;;;;;5030585;28;20016;-73
2023/06/30 14:46:05;;;;;;;;;;;;;;;;;;5030331;28;20008;-72
2023/06/30 14:48:33;;;;;;;;;;;;;;;;;;5030685;28;19979;-73
2023/06/30 14:50:59;;;;;;;;;;;;;;;;;;5030002;28;20294;-73
2023/06/30 14:53:25;;;;;;;;;;;;;;;;;;5030962;28;20016;-73
2023/06/30 14:55:52;;;;;;;;;;;;;;;;;;5030087;28;20429;-73
2023/06/30 14:58:18;;;;;;;;;;;;;;;;;;5030491;28;19975;-73
2023/06/30 15:00:45;;;;;;;;;;;;;;;;;;5029345;28;20290;-73
2023/06/30 15:03:11;;;;;;;;;;;;;;;;;;5031107;28;19947;-73
2023/06/30 15:05:39;;;;;;;;;;;;;;;;;;5030580;28;20017;-73
2023/06/30 15:08:06;;;;;;;;;;;;;;;;;;5030695;28;19932;-73
2023/06/30 15:10:33;;;;;;;;;;;;;;;;;;5030157;28;20320;-72
2023/06/30 15:12:59;;;;;;;;;;;;;;;;;;5030620;28;20059;-73
2023/06/30 15:15:25;;;;;;;;;;;;;;;;;;5033457;28;19931;-73
2023/06/30 15:17:52;;;;;;;;;;;;;;;;;;5034437;28;19929;-73
2023/06/30 15:20:18;;;;;;;;;;;;;;;;;;5034121;28;20393;-73
2023/06/30 15:22:46;;;;;;;;;;;;;;;;;;5034027;28;20095;-73
2023/06/30 15:25:22;;;;;;;;;;;;;;;;;;5034601;28;19931;-73
2023/06/30 15:27:48;;;;;;;;;;;;;;;;;;5033710;28;19925;-73
2023/06/30 15:30:15;;;;;;;;;;;;;;;;;;5034155;28;19979;-73
2023/06/30 15:32:41;;;;;;;;;;;;;;;;;;5033897;28;20406;-73
2023/06/30 15:35:08;;;;;;;;;;;;;;;;;;5034450;28;20008;-73
2023/06/30 15:37:35;;;;;;;;;;;;;;;;;;5033623;28;20049;-73
2023/06/30 15:40:02;;;;;;;;;;;;;;;;;;5033714;28;19979;-71
2023/06/30 15:42:32;;;;;;;;;;;;;;;;;;5033451;28;20356;-71
2023/06/30 15:44:59;;;;;;;;;;;;;;;;;;5033875;28;19925;-71
2023/06/30 15:47:25;;;;;;;;;;;;;;;;;;5033431;28;19925;-71
2023/06/30 15:49:51;;;;;;;;;;;;;;;;;;5033429;28;19925;-71
2023/06/30 15:52:18;;;;;;;;;;;;;;;;;;5033750;28;20042;-71
2023/06/30 15:54:44;;;;;;;;;;;;;;;;;;5033243;28;20397;-71
2023/06/30 15:57:12;;;;;;;;;;;;;;;;;;5033536;28;20024;-71
2023/06/30 15:59:38;;;;;;;;;;;;;;;;;;5033315;28;19925;-69
2023/06/30 16:02:05;;;;;;;;;;;;;;;;;;5033735;28;20112;-71
2023/06/30 16:04:31;;;;;;;;;;;;;;;;;;5033285;28;20422;-71
2023/06/30 16:06:58;;;;;;;;;;;;;;;;;;5033463;28;20052;-71
2023/06/30 16:09:24;;;;;;;;;;;;;;;;;;5032908;28;20032;-71
2023/06/30 16:11:50;;;;;;;;;;;;;;;;;;5032893;28;20025;-71
2023/06/30 16:14:18;;;;;;;;;;;;;;;;;;5033595;28;20024;-71
2023/06/30 16:16:45;;;;;;;;;;;;;;;;;;5032909;28;19931;-71
2023/06/30 16:19:11;;;;;;;;;;;;;;;;;;5033311;28;19925;-71
2023/06/30 16:21:38;;;;;;;;;;;;;;;;;;5033497;28;20338;-71
2023/06/30 16:24:05;;;;;;;;;;;;;;;;;;5036478;28;20025;-71
2023/06/30 16:26:32;;;;;;;;;;;;;;;;;;5052981;28;20294;-71
2023/06/30 16:28:58;;;;;;;;;;;;;;;;;;5053127;28;19932;-70
2023/06/30 16:31:26;;;;;;;;;;;;;;;;;;5052411;28;20027;-71
2023/06/30 16:33:52;;;;;;;;;;;;;;;;;;5053055;28;20271;-71
2023/06/30 16:36:19;;;;;;;;;;;;;;;;;;5052773;28;19975;-70
2023/06/30 16:38:45;;;;;;;;;;;;;;;;;;5052970;28;19924;-71
2023/06/30 16:41:12;;;;;;;;;;;;;;;;;;5052220;28;20379;-70
2023/06/30 16:43:38;;;;;;;;;;;;;;;;;;5052892;28;20393;-72
2023/06/30 16:46:04;;;;;;;;;;;;;;;;;;5051786;28;20019;-71